createdAt,value
2022-11-06T00:02:00.869Z,21.48
2022-11-06T00:04:31.528Z,20.80
2022-11-06T00:06:58.955Z,21.20
2022-11-06T00:09:26.445Z,21.40
2022-11-06T00:11:53.932Z,23.08
2022-11-06T00:14:21.357Z,18.92
2022-11-06T00:16:49.223Z,21.17
2022-11-06T00:19:18.787Z,20.40
2022-11-06T00:21:46.367Z,17.92
2022-11-06T00:24:14.879Z,18.20
2022-11-06T00:26:42.785Z,19.67
2022-11-06T00:29:13.880Z,20.88
2022-11-06T00:31:41.539Z,22.35
2022-11-06T00:34:10.726Z,22.52
2022-11-06T00:36:38.503Z,19.60
2022-11-06T00:39:05.990Z,22.00
2022-11-06T00:41:33.527Z,19.60
2022-11-06T00:44:02.258Z,18.52
2022-11-06T00:46:30.183Z,17.98
2022-11-06T00:48:58.132Z,18.90
2022-11-06T00:51:31.485Z,20.48
2022-11-06T00:54:00.988Z,19.88
2022-11-06T00:56:29.771Z,20.85
2022-11-06T00:58:59.883Z,18.45
2022-11-06T01:01:30.410Z,21.25
2022-11-06T01:04:03.538Z,17.45
2022-11-06T01:06:33.512Z,16.85
2022-11-06T01:09:01.405Z,20.25
2022-11-06T01:11:46.595Z,16.55
2022-11-06T01:14:19.718Z,16.05
2022-11-06T01:16:47.626Z,15.93
2022-11-06T01:19:16.455Z,17.02
2022-11-06T01:21:46.684Z,14.50
2022-11-06T01:24:17.403Z,16.05
2022-11-06T01:26:58.816Z,16.15
2022-11-06T01:29:32.760Z,16.95
2022-11-06T01:32:00.190Z,18.50
2022-11-06T01:34:27.700Z,16.15
2022-11-06T01:36:55.090Z,16.90
2022-11-06T01:39:22.478Z,16.13
2022-11-06T01:41:51.694Z,15.25
2022-11-06T01:44:40.843Z,15.40
2022-11-06T01:47:26.177Z,15.82
2022-11-06T01:49:58.873Z,13.70
2022-11-06T01:52:27.391Z,16.15
2022-11-06T01:54:58.619Z,15.93
2022-11-06T01:57:26.012Z,14.18
2022-11-06T01:59:54.441Z,12.32
2022-11-06T02:02:22.010Z,16.98
2022-11-06T02:04:49.920Z,16.45
2022-11-06T02:07:18.928Z,15.18
2022-11-06T02:09:46.522Z,12.80
2022-11-06T02:12:31.403Z,12.65
2022-11-06T02:15:14.047Z,13.43
2022-11-06T02:20:55.683Z,10.38
2022-11-06T02:23:35.160Z,10.73
2022-11-06T02:26:13.263Z,12.55
2022-11-06T02:28:48.105Z,9.65
2022-11-06T02:31:18.336Z,13.00
2022-11-06T02:33:52.378Z,12.88
2022-11-06T02:36:23.463Z,12.45
2022-11-06T02:38:55.378Z,11.73
2022-11-06T02:41:26.072Z,12.05
2022-11-06T02:43:56.414Z,11.32
2022-11-06T02:46:39.802Z,13.23
2022-11-06T02:49:13.587Z,13.98
2022-11-06T02:51:45.123Z,13.68
2022-11-06T02:54:12.713Z,11.70
2022-11-06T02:56:43.422Z,11.68
2022-11-06T02:59:15.522Z,12.68
2022-11-06T03:01:47.380Z,11.40
2022-11-06T03:05:04.525Z,13.25
2022-11-06T03:07:38.438Z,11.50
2022-11-06T03:10:07.099Z,11.02
2022-11-06T03:12:57.528Z,10.25
2022-11-06T03:15:34.510Z,11.07
2022-11-06T03:18:13.072Z,10.95
2022-11-06T03:20:48.114Z,11.48
2022-11-06T03:23:29.384Z,14.48
2022-11-06T03:26:04.811Z,11.07
2022-11-06T03:28:39.135Z,11.18
2022-11-06T03:31:11.995Z,13.52
2022-11-06T03:33:45.360Z,10.88
2022-11-06T03:36:17.157Z,11.65
2022-11-06T03:38:48.084Z,11.40
2022-11-06T03:41:54.489Z,12.70
2022-11-06T03:44:24.854Z,13.27
2022-11-06T03:47:23.122Z,13.38
2022-11-06T03:50:20.571Z,12.57
2022-11-06T03:53:18.598Z,12.38
2022-11-06T03:55:50.653Z,11.27
2022-11-06T03:58:22.352Z,15.18
2022-11-06T04:00:51.552Z,14.52
2022-11-06T04:03:24.446Z,14.35
2022-11-06T04:05:55.234Z,12.60
2022-11-06T04:08:44.110Z,12.07
2022-11-06T04:11:34.434Z,16.20
2022-11-06T04:14:05.422Z,13.50
2022-11-06T04:16:41.893Z,14.43
2022-11-06T04:19:21.934Z,13.00
2022-11-06T04:22:16.582Z,17.67
2022-11-06T04:25:27.432Z,16.15
2022-11-06T04:28:24.159Z,14.00
2022-11-06T04:31:16.745Z,12.75
2022-11-06T04:33:58.331Z,12.68
2022-11-06T04:36:47.187Z,12.80
2022-11-06T04:39:17.842Z,13.55
2022-11-06T04:42:11.136Z,12.77
2022-11-06T04:44:44.225Z,12.25
2022-11-06T04:47:22.016Z,13.98
2022-11-06T04:49:51.300Z,13.93
2022-11-06T04:52:23.255Z,15.63
2022-11-06T04:54:51.219Z,12.52
2022-11-06T04:57:18.620Z,13.13
2022-11-06T04:59:46.030Z,17.13
2022-11-06T05:02:13.541Z,15.18
2022-11-06T05:04:41.418Z,15.15
2022-11-06T05:07:09.662Z,14.10
2022-11-06T05:09:37.087Z,14.30
2022-11-06T05:12:04.699Z,14.35
2022-11-06T05:14:32.736Z,16.02
2022-11-06T05:17:00.470Z,16.42
2022-11-06T05:19:27.920Z,13.07
2022-11-06T05:22:13.887Z,12.45
2022-11-06T05:24:41.291Z,13.40
2022-11-06T05:27:08.722Z,12.20
2022-11-06T05:29:36.134Z,13.50
2022-11-06T05:32:03.795Z,14.05
2022-11-06T05:34:31.211Z,14.02
2022-11-06T05:36:58.628Z,12.48
2022-11-06T05:39:26.029Z,13.80
2022-11-06T05:41:53.514Z,14.63
2022-11-06T05:44:21.145Z,11.45
2022-11-06T05:46:49.909Z,13.50
2022-11-06T05:49:18.702Z,12.23
2022-11-06T05:51:46.369Z,14.40
2022-11-06T05:54:14.646Z,11.88
2022-11-06T05:56:42.072Z,13.50
2022-11-06T05:59:09.605Z,11.32
2022-11-06T06:01:37.149Z,17.13
2022-11-06T06:04:04.827Z,15.43
2022-11-06T06:06:32.680Z,11.63
2022-11-06T06:09:00.033Z,10.10
2022-11-06T06:11:27.487Z,12.90
2022-11-06T06:13:54.874Z,12.25
2022-11-06T06:16:22.314Z,10.43
2022-11-06T06:18:53.438Z,11.48
2022-11-06T06:21:20.834Z,12.68
2022-11-06T06:23:48.229Z,11.50
2022-11-06T06:26:15.678Z,12.32
2022-11-06T06:28:43.372Z,11.77
2022-11-06T06:31:10.955Z,13.23
2022-11-06T06:33:38.349Z,17.20
2022-11-06T06:36:06.532Z,11.23
2022-11-06T06:38:34.136Z,11.15
2022-11-06T06:41:02.844Z,9.43
2022-11-06T06:43:30.783Z,11.75
2022-11-06T06:46:03.244Z,9.85
2022-11-06T06:51:01.850Z,12.02
2022-11-06T06:53:29.910Z,10.15
2022-11-06T06:56:01.853Z,11.20
2022-11-06T06:58:30.173Z,11.75
2022-11-06T07:01:10.368Z,9.75
2022-11-06T07:03:38.826Z,12.77
2022-11-06T07:06:07.185Z,12.38
2022-11-06T07:08:34.567Z,10.10
2022-11-06T07:11:07.631Z,10.60
2022-11-06T07:13:36.563Z,13.70
2022-11-06T07:16:09.758Z,12.77
2022-11-06T07:18:38.188Z,11.27
2022-11-06T07:21:07.852Z,12.07
2022-11-06T07:23:36.259Z,11.63
2022-11-06T07:26:04.579Z,13.23
2022-11-06T07:28:32.622Z,12.50
2022-11-06T07:40:11.018Z,12.20
2022-11-06T07:42:43.244Z,12.57
2022-11-06T07:45:15.328Z,11.20
2022-11-06T07:47:43.365Z,9.50
2022-11-06T07:50:10.783Z,15.18
2022-11-06T07:52:38.165Z,12.30
2022-11-06T07:55:06.174Z,11.20
2022-11-06T07:57:37.137Z,15.77
2022-11-06T08:00:06.392Z,12.73
2022-11-06T08:02:40.454Z,10.98
2022-11-06T08:05:08.548Z,12.90
2022-11-06T08:07:36.084Z,12.25
2022-11-06T08:10:03.896Z,9.93
2022-11-06T08:12:31.316Z,11.95
2022-11-06T08:14:58.743Z,12.07
2022-11-06T08:17:27.675Z,8.57
2022-11-06T08:19:55.092Z,11.82
2022-11-06T08:22:22.602Z,12.45
2022-11-06T08:24:49.971Z,11.07
2022-11-06T08:27:17.976Z,14.95
2022-11-06T08:29:45.936Z,9.82
2022-11-06T08:32:13.469Z,10.93
2022-11-06T08:34:42.341Z,8.43
2022-11-06T08:37:10.642Z,13.18
2022-11-06T08:39:38.442Z,8.18
2022-11-06T08:42:07.209Z,7.93
2022-11-06T08:44:34.821Z,8.52
2022-11-06T08:47:02.575Z,8.32
2022-11-06T08:49:30.559Z,10.40
2022-11-06T08:51:58.457Z,10.13
2022-11-06T08:54:26.514Z,8.65
2022-11-06T08:56:54.355Z,8.65
2022-11-06T08:59:22.091Z,7.20
2022-11-06T09:01:49.945Z,8.77
2022-11-06T09:04:17.749Z,8.23
2022-11-06T09:06:45.368Z,6.93
2022-11-06T09:09:13.011Z,7.70
2022-11-06T09:11:41.261Z,6.32
2022-11-06T09:14:09.082Z,7.00
2022-11-06T09:16:36.747Z,8.95
2022-11-06T09:19:04.363Z,9.82
2022-11-06T09:21:32.770Z,6.15
2022-11-06T09:24:00.329Z,6.85
2022-11-06T09:26:27.954Z,9.88
2022-11-06T09:28:55.576Z,6.80
2022-11-06T09:31:23.190Z,7.40
2022-11-06T09:33:51.329Z,6.07
2022-11-06T09:36:18.898Z,6.97
2022-11-06T09:38:46.468Z,7.38
2022-11-06T09:41:52.621Z,8.27
2022-11-06T09:44:32.869Z,6.97
2022-11-06T09:47:05.738Z,7.45
2022-11-06T09:49:42.199Z,10.65
2022-11-06T09:52:34.709Z,6.82
2022-11-06T09:55:06.376Z,6.43
2022-11-06T09:57:42.812Z,7.22
2022-11-06T10:00:15.880Z,10.30
2022-11-06T10:02:53.051Z,8.20
2022-11-06T10:05:36.210Z,9.23
2022-11-06T10:08:10.481Z,10.32
2022-11-06T10:10:57.400Z,10.27
2022-11-06T10:13:31.071Z,9.10
2022-11-06T10:16:16.277Z,7.65
2022-11-06T10:18:50.104Z,7.47
2022-11-06T10:21:20.548Z,23.77
2022-11-06T10:24:00.166Z,10.20
2022-11-06T10:26:38.601Z,8.65
2022-11-06T10:29:28.099Z,8.13
2022-11-06T10:32:08.536Z,7.63
2022-11-06T10:34:52.835Z,9.05
2022-11-06T10:37:28.558Z,8.50
2022-11-06T10:39:57.271Z,9.32
2022-11-06T10:42:38.274Z,8.55
2022-11-06T10:45:11.948Z,9.93
2022-11-06T10:47:52.252Z,12.02
2022-11-06T10:50:20.005Z,10.88
2022-11-06T10:52:58.814Z,11.25
2022-11-06T10:55:26.399Z,8.65
2022-11-06T10:58:01.106Z,12.48
2022-11-06T11:00:28.627Z,9.88
2022-11-06T11:02:57.410Z,10.88
2022-11-06T11:05:26.700Z,9.75
2022-11-06T11:07:55.200Z,9.70
2022-11-06T11:10:28.708Z,9.85
2022-11-06T11:13:01.679Z,11.40
2022-11-06T11:15:33.095Z,12.93
2022-11-06T11:18:33.997Z,12.43
2022-11-06T11:21:25.486Z,11.07
2022-11-06T11:24:10.604Z,9.02
2022-11-06T11:26:43.379Z,11.90
2022-11-06T11:29:21.597Z,9.27
2022-11-06T11:31:57.688Z,11.68
2022-11-06T11:34:27.807Z,8.88
2022-11-06T11:37:08.339Z,14.38
2022-11-06T11:39:38.083Z,9.77
2022-11-06T11:42:23.473Z,11.27
2022-11-06T11:45:07.207Z,11.20
2022-11-06T11:47:35.907Z,9.63
2022-11-06T11:50:21.906Z,9.63
2022-11-06T11:52:51.608Z,8.95
2022-11-06T11:55:26.674Z,10.15
2022-11-06T11:57:56.570Z,7.43
2022-11-06T12:00:24.207Z,8.80
2022-11-06T12:02:59.008Z,9.18
2022-11-06T12:05:37.192Z,8.38
2022-11-06T12:08:04.961Z,10.98
2022-11-06T12:10:40.251Z,10.48
2022-11-06T12:13:16.364Z,10.88
2022-11-06T12:15:57.571Z,9.98
2022-11-06T12:18:36.422Z,8.73
2022-11-06T12:21:22.142Z,10.85
2022-11-06T12:24:30.812Z,9.20
2022-11-06T12:27:02.408Z,14.05
2022-11-06T12:30:10.683Z,10.10
2022-11-06T12:33:12.243Z,9.38
2022-11-06T12:35:48.583Z,13.98
2022-11-06T12:38:45.183Z,13.07
2022-11-06T12:41:17.042Z,11.82
2022-11-06T12:43:46.957Z,10.25
2022-11-06T12:46:37.062Z,11.13
2022-11-06T12:49:09.179Z,15.50
2022-11-06T12:52:14.792Z,12.30
2022-11-06T12:54:54.113Z,10.80
2022-11-06T12:57:48.028Z,10.98
2022-11-06T13:00:24.116Z,11.70
2022-11-06T13:03:13.320Z,13.40
2022-11-06T13:05:59.654Z,17.25
2022-11-06T13:08:39.391Z,14.85
2022-11-06T13:11:36.595Z,12.55
2022-11-06T13:14:26.906Z,15.85
2022-11-06T13:17:09.199Z,17.20
2022-11-06T13:19:45.354Z,15.48
2022-11-06T13:22:15.847Z,16.38
2022-11-06T13:24:57.837Z,13.07
2022-11-06T13:27:50.376Z,17.13
2022-11-06T13:30:19.852Z,16.20
2022-11-06T13:33:15.149Z,20.38
2022-11-06T13:35:43.622Z,15.52
2022-11-06T13:38:23.680Z,16.17
2022-11-06T13:40:54.017Z,18.60
2022-11-06T13:43:37.522Z,18.35
2022-11-06T13:46:25.551Z,17.35
2022-11-06T13:49:11.533Z,13.82
2022-11-06T13:51:54.524Z,17.15
2022-11-06T13:54:54.381Z,14.00
2022-11-06T13:57:46.656Z,17.98
2022-11-06T14:00:37.612Z,16.25
2022-11-06T14:03:28.335Z,17.35
2022-11-06T14:06:05.726Z,16.48
2022-11-06T14:08:35.199Z,15.30
2022-11-06T14:11:06.120Z,14.98
2022-11-06T14:13:35.335Z,18.23
2022-11-06T14:16:07.659Z,16.33
2022-11-06T14:21:28.275Z,15.30
2022-11-06T14:24:05.846Z,17.95
2022-11-06T14:26:39.026Z,16.00
2022-11-06T14:29:42.325Z,17.85
2022-11-06T14:32:12.059Z,23.58
2022-11-06T14:34:41.996Z,22.30
2022-11-06T14:37:42.192Z,21.63
2022-11-06T14:40:13.694Z,21.50
2022-11-06T14:42:46.348Z,21.05
2022-11-06T14:45:21.394Z,16.90
2022-11-06T14:47:54.405Z,19.65
2022-11-06T14:50:25.661Z,16.65
2022-11-06T14:52:59.619Z,18.70
2022-11-06T14:55:33.244Z,19.92
2022-11-06T14:58:20.811Z,18.48
2022-11-06T15:00:52.539Z,17.75
2022-11-06T15:03:21.392Z,18.95
2022-11-06T15:05:52.338Z,16.60
2022-11-06T15:08:45.126Z,18.00
2022-11-06T15:11:31.003Z,19.33
2022-11-06T15:14:07.787Z,22.83
2022-11-06T15:16:50.786Z,18.80
2022-11-06T15:19:47.500Z,19.23
2022-11-06T15:22:28.954Z,17.70
2022-11-06T15:25:04.066Z,20.08
2022-11-06T15:27:38.946Z,18.55
2022-11-06T15:30:19.702Z,19.25
2022-11-06T15:32:48.591Z,20.52
2022-11-06T15:35:19.437Z,21.63
2022-11-06T15:37:50.764Z,18.48
2022-11-06T15:40:30.494Z,20.20
2022-11-06T15:43:01.024Z,22.15
2022-11-06T15:45:29.446Z,20.73
2022-11-06T15:48:02.004Z,20.88
2022-11-06T15:50:34.061Z,21.58
2022-11-06T15:53:14.086Z,23.77
2022-11-06T15:55:55.377Z,27.08
2022-11-06T15:58:31.724Z,22.05
2022-11-06T16:01:01.134Z,25.52
2022-11-06T16:03:31.416Z,21.52
2022-11-06T16:06:02.055Z,23.00
2022-11-06T16:08:31.446Z,22.15
2022-11-06T16:10:59.227Z,24.90
2022-11-06T16:13:27.006Z,28.08
2022-11-06T16:15:59.041Z,23.77
2022-11-06T16:18:32.467Z,22.73
2022-11-06T16:21:10.156Z,21.23
2022-11-06T16:23:46.518Z,24.20
2022-11-06T16:26:16.242Z,23.38
2022-11-06T16:28:45.571Z,24.20
2022-11-06T16:31:19.287Z,25.10
2022-11-06T16:34:01.059Z,23.00
2022-11-06T16:36:30.609Z,25.87
2022-11-06T16:39:40.059Z,23.58
2022-11-06T16:42:27.831Z,25.23
2022-11-06T16:45:31.369Z,21.17
2022-11-06T16:48:08.045Z,24.38
2022-11-06T16:50:50.543Z,24.25
2022-11-06T16:53:19.383Z,18.80
2022-11-06T16:56:07.195Z,20.50
2022-11-06T16:58:52.050Z,20.98
2022-11-06T17:01:21.006Z,22.70
2022-11-06T17:03:54.556Z,22.70
2022-11-06T17:06:30.128Z,20.67
2022-11-06T17:09:24.226Z,19.85
2022-11-06T17:11:56.733Z,22.05
2022-11-06T17:14:24.980Z,19.92
2022-11-06T17:16:53.658Z,18.30
2022-11-06T17:19:21.588Z,18.90
2022-11-06T17:21:50.262Z,19.13
2022-11-06T17:24:36.121Z,19.75
2022-11-06T17:27:05.357Z,20.48
2022-11-06T17:29:36.374Z,20.70
2022-11-06T17:32:04.689Z,21.13
2022-11-06T17:34:32.189Z,21.30
2022-11-06T17:36:59.700Z,22.55
2022-11-06T17:39:27.164Z,20.92
2022-11-06T17:41:54.743Z,23.15
2022-11-06T17:44:22.479Z,21.55
2022-11-06T17:46:50.016Z,20.52
2022-11-06T17:49:18.678Z,22.77
2022-11-06T17:51:50.163Z,21.38
2022-11-06T17:54:18.881Z,25.33
2022-11-06T17:56:46.560Z,28.83
2022-11-06T17:59:14.431Z,23.63
2022-11-06T18:01:42.279Z,24.80
2022-11-06T18:04:10.050Z,19.63
2022-11-06T18:06:37.518Z,28.05
2022-11-06T18:09:07.482Z,24.15
2022-11-06T18:11:35.015Z,27.42
2022-11-06T18:14:03.174Z,23.30
2022-11-06T18:16:32.776Z,22.73
2022-11-06T18:19:00.925Z,24.20
2022-11-06T18:21:28.505Z,26.75
2022-11-06T18:23:56.027Z,22.48
2022-11-06T18:26:23.480Z,23.58
2022-11-06T18:28:51.150Z,19.20
2022-11-06T18:31:19.477Z,26.10
2022-11-06T18:33:47.651Z,21.90
2022-11-06T18:36:16.061Z,24.67
2022-11-06T18:38:43.673Z,25.08
2022-11-06T18:41:14.058Z,24.27
2022-11-06T18:43:41.551Z,22.23
2022-11-06T18:46:36.103Z,22.77
2022-11-06T18:49:03.727Z,22.88
2022-11-06T18:51:35.467Z,19.95
2022-11-06T18:56:33.685Z,19.27
2022-11-06T18:59:01.122Z,18.13
2022-11-06T19:01:29.722Z,20.95
2022-11-06T19:03:57.364Z,18.48
2022-11-06T19:06:24.803Z,15.45
2022-11-06T19:08:52.372Z,20.42
2022-11-06T19:11:19.965Z,21.27
2022-11-06T19:13:48.637Z,21.67
2022-11-06T19:16:19.362Z,15.95
2022-11-06T19:21:30.390Z,15.02
2022-11-06T19:24:05.355Z,16.85
2022-11-06T19:26:35.726Z,16.08
2022-11-06T19:29:05.285Z,15.20
2022-11-06T19:31:33.254Z,15.52
2022-11-06T19:34:02.152Z,21.73
2022-11-06T19:36:30.282Z,15.55
2022-11-06T19:38:58.657Z,14.13
2022-11-06T19:41:27.035Z,15.82
2022-11-06T19:43:54.618Z,18.42
2022-11-06T19:46:26.022Z,18.85
2022-11-06T19:48:57.261Z,20.02
2022-11-06T19:51:25.902Z,19.23
2022-11-06T19:53:54.433Z,17.52
2022-11-06T19:56:22.289Z,20.08
2022-11-06T19:58:50.780Z,14.93
2022-11-06T20:01:19.556Z,16.55
2022-11-06T20:03:47.185Z,14.73
2022-11-06T20:06:14.980Z,14.07
2022-11-06T20:08:42.873Z,15.70
2022-11-06T20:11:12.759Z,15.98
2022-11-06T20:13:41.117Z,14.73
2022-11-06T20:16:15.061Z,14.95
2022-11-06T20:18:42.677Z,14.90
2022-11-06T20:21:12.014Z,19.27
2022-11-06T20:23:39.689Z,17.55
2022-11-06T20:26:07.283Z,16.00
2022-11-06T20:28:35.028Z,18.38
2022-11-06T20:31:07.415Z,17.02
2022-11-06T20:36:13.318Z,15.80
2022-11-06T20:38:41.107Z,17.27
2022-11-06T20:41:08.566Z,13.55
2022-11-06T20:43:36.173Z,16.27
2022-11-06T20:46:04.100Z,14.10
2022-11-06T20:48:32.989Z,18.98
2022-11-06T20:51:05.351Z,17.05
2022-11-06T20:56:02.535Z,16.67
2022-11-06T20:58:30.340Z,18.35
2022-11-06T21:01:06.387Z,18.33
2022-11-06T21:03:34.207Z,16.55
2022-11-06T21:06:01.879Z,17.48
2022-11-06T21:08:32.307Z,18.48
2022-11-06T21:11:06.011Z,14.80
2022-11-06T21:13:34.299Z,18.40
2022-11-06T21:16:04.765Z,15.40
2022-11-06T21:18:35.327Z,19.77
2022-11-06T21:21:05.936Z,16.08
2022-11-06T21:23:34.616Z,19.63
2022-11-06T21:26:13.920Z,14.85
2022-11-06T21:28:43.377Z,23.58
2022-11-06T21:31:25.870Z,23.90
2022-11-06T21:33:56.402Z,21.42
2022-11-06T21:36:28.671Z,30.95
2022-11-06T21:38:59.016Z,26.98
2022-11-06T21:41:28.482Z,20.23
2022-11-06T21:43:56.869Z,18.42
2022-11-06T21:46:24.726Z,17.40
2022-11-06T21:48:52.910Z,23.45
2022-11-06T21:51:26.643Z,23.23
2022-11-06T21:54:13.080Z,19.30
2022-11-06T21:56:41.615Z,23.63
2022-11-06T21:59:11.874Z,21.50
2022-11-06T22:01:40.285Z,22.95
2022-11-06T22:04:08.598Z,21.45
2022-11-06T22:06:36.173Z,20.13
2022-11-06T22:09:03.932Z,19.42
2022-11-06T22:11:33.318Z,17.77
2022-11-06T22:14:04.835Z,21.10
2022-11-06T22:16:35.491Z,22.87
2022-11-06T22:19:03.778Z,17.17
2022-11-06T22:21:31.242Z,19.15
2022-11-06T22:23:58.799Z,19.45
2022-11-06T22:26:29.810Z,18.65
2022-11-06T22:28:59.535Z,18.65
2022-11-06T22:31:27.834Z,21.55
2022-11-06T22:33:55.987Z,24.70
2022-11-06T22:36:24.128Z,18.00
2022-11-06T22:38:52.181Z,19.67
2022-11-06T22:41:22.201Z,19.60
2022-11-06T22:43:50.102Z,17.85
2022-11-06T22:46:20.951Z,19.92
2022-11-06T22:48:49.259Z,23.40
2022-11-06T22:51:21.743Z,23.52
2022-11-06T22:53:50.420Z,20.13
2022-11-06T22:56:18.727Z,17.08
2022-11-06T22:58:46.091Z,18.95
2022-11-06T23:01:13.914Z,19.83
2022-11-06T23:03:41.385Z,18.30
2022-11-06T23:06:10.051Z,18.67
2022-11-06T23:08:42.913Z,21.15
2022-11-06T23:11:15.197Z,18.73
2022-11-06T23:13:43.984Z,23.02
2022-11-06T23:16:13.904Z,20.67
2022-11-06T23:18:41.723Z,17.83
2022-11-06T23:21:16.988Z,17.73
2022-11-06T23:23:45.264Z,18.75
2022-11-06T23:26:18.459Z,17.35
2022-11-06T23:28:46.445Z,18.40
2022-11-06T23:31:15.176Z,16.75
2022-11-06T23:33:43.504Z,17.95
2022-11-06T23:36:13.675Z,21.77
2022-11-06T23:38:41.718Z,19.48
2022-11-06T23:41:30.749Z,17.27
2022-11-06T23:43:58.932Z,15.32
2022-11-06T23:46:28.845Z,22.90
2022-11-06T23:48:56.460Z,18.48
2022-11-06T23:51:26.777Z,17.80
2022-11-06T23:53:54.433Z,17.30
2022-11-06T23:56:21.846Z,18.45
2022-11-06T23:58:49.427Z,19.15
